createdAt,value
2019-06-01T00:01:38.156Z,17.50
2019-06-01T00:04:06.602Z,17.40
2019-06-01T00:06:35.016Z,17.40
2019-06-01T00:09:05.126Z,17.20
2019-06-01T00:11:33.555Z,17.20
2019-06-01T00:14:01.954Z,17.20
2019-06-01T00:16:30.349Z,17.20
2019-06-01T00:18:58.768Z,17.20
2019-06-01T00:21:27.233Z,17.10
2019-06-01T00:23:55.611Z,17.10
2019-06-01T00:26:24.020Z,16.90
2019-06-01T00:28:53.038Z,16.70
2019-06-01T00:31:21.540Z,16.30
2019-06-01T00:33:49.929Z,16.00
2019-06-01T00:36:18.321Z,16.10
2019-06-01T00:38:47.839Z,16.50
2019-06-01T00:41:16.383Z,16.20
2019-06-01T00:43:44.786Z,16.10
2019-06-01T00:46:13.191Z,16.10
2019-06-01T00:48:41.705Z,16.20
2019-06-01T00:51:10.057Z,16.00
2019-06-01T00:53:38.464Z,15.80
2019-06-01T00:56:06.870Z,15.60
2019-06-01T00:58:35.257Z,15.90
2019-06-01T01:01:03.681Z,16.10
2019-06-01T01:03:32.070Z,16.30
2019-06-01T01:06:00.474Z,16.30
2019-06-01T01:08:28.891Z,16.40
2019-06-01T01:10:57.310Z,16.40
2019-06-01T01:13:27.282Z,16.40
2019-06-01T01:15:55.842Z,16.40
2019-06-01T01:18:24.425Z,16.40
2019-06-01T01:20:54.075Z,16.40
2019-06-01T01:23:22.716Z,16.40
2019-06-01T01:25:51.112Z,16.40
2019-06-01T01:28:19.720Z,16.40
2019-06-01T01:31:03.116Z,16.40
2019-06-01T01:33:18.190Z,16.40
2019-06-01T01:35:47.541Z,16.40
2019-06-01T01:38:16.144Z,16.40
2019-06-01T01:40:44.551Z,16.30
2019-06-01T01:43:12.950Z,16.30
2019-06-01T01:45:41.982Z,16.30
2019-06-01T01:48:10.440Z,16.30
2019-06-01T01:50:38.811Z,16.30
2019-06-01T01:53:07.225Z,16.20
2019-06-01T01:55:35.625Z,16.10
2019-06-01T01:58:04.032Z,16.10
2019-06-01T02:00:46.114Z,16.10
2019-06-01T02:03:14.491Z,16.20
2019-06-01T02:05:42.916Z,16.30
2019-06-01T02:08:11.353Z,16.20
2019-06-01T02:10:39.798Z,16.00
2019-06-01T02:13:08.377Z,15.60
2019-06-01T02:15:37.693Z,15.60
2019-06-01T02:18:06.177Z,15.60
2019-06-01T02:20:34.618Z,15.70
2019-06-01T02:23:03.325Z,15.60
2019-06-01T02:25:31.768Z,15.60
2019-06-01T02:28:01.395Z,15.70
2019-06-01T02:30:30.057Z,15.60
2019-06-01T02:33:00.100Z,15.70
2019-06-01T02:35:28.681Z,15.80
2019-06-01T02:37:58.606Z,15.90
2019-06-01T02:40:27.090Z,16.00
2019-06-01T02:42:57.163Z,16.10
2019-06-01T02:45:25.720Z,16.00
2019-06-01T02:47:55.366Z,15.90
2019-06-01T02:50:23.915Z,15.90
2019-06-01T02:52:52.432Z,16.00
2019-06-01T02:55:20.807Z,15.80
2019-06-01T02:57:49.229Z,15.80
2019-06-01T03:00:19.582Z,15.80
2019-06-01T03:02:48.060Z,15.80
2019-06-01T03:05:16.456Z,15.80
2019-06-01T03:07:44.855Z,15.70
2019-06-01T03:10:13.313Z,15.60
2019-06-01T03:12:44.774Z,15.60
2019-06-01T03:15:14.974Z,15.40
2019-06-01T03:17:49.031Z,15.30
2019-06-01T03:20:17.383Z,15.40
2019-06-01T03:22:47.428Z,15.40
2019-06-01T03:25:15.809Z,15.50
2019-06-01T03:27:44.403Z,15.60
2019-06-01T03:30:15.435Z,15.70
2019-06-01T03:32:42.857Z,15.80
2019-06-01T03:35:11.235Z,15.80
2019-06-01T03:37:39.622Z,15.60
2019-06-01T03:40:15.820Z,15.50
2019-06-01T03:42:38.063Z,15.30
2019-06-01T03:45:07.639Z,15.30
2019-06-01T03:47:36.113Z,15.30
2019-06-01T03:50:06.931Z,15.20
2019-06-01T03:52:35.361Z,15.20
2019-06-01T03:55:05.876Z,15.20
2019-06-01T03:57:34.413Z,15.30
2019-06-01T04:00:03.371Z,15.40
2019-06-01T04:02:33.355Z,15.30
2019-06-01T04:05:03.340Z,15.50
2019-06-01T04:07:31.934Z,15.50
2019-06-01T04:10:01.514Z,15.60
2019-06-01T04:12:30.139Z,15.50
2019-06-01T04:14:58.595Z,15.60
2019-06-01T04:17:26.966Z,15.70
2019-06-01T04:19:55.361Z,15.50
2019-06-01T04:22:23.730Z,15.70
2019-06-01T04:24:52.131Z,15.60
2019-06-01T04:27:20.496Z,15.60
2019-06-01T04:29:48.923Z,15.60
2019-06-01T04:32:17.247Z,15.70
2019-06-01T04:34:45.635Z,15.70
2019-06-01T04:37:14.013Z,15.80
2019-06-01T04:39:42.404Z,15.80
2019-06-01T04:42:11.801Z,15.60
2019-06-01T04:44:40.400Z,15.50
2019-06-01T04:47:09.275Z,15.40
2019-06-01T04:49:38.960Z,15.50
2019-06-01T04:52:07.342Z,15.50
2019-06-01T04:54:35.743Z,15.60
2019-06-01T04:57:04.762Z,15.80
2019-06-01T04:59:33.321Z,15.60
2019-06-01T05:02:01.830Z,15.70
2019-06-01T05:04:30.178Z,15.90
2019-06-01T05:06:58.555Z,16.10
2019-06-01T05:09:26.933Z,16.30
2019-06-01T05:11:55.313Z,16.50
2019-06-01T05:14:23.702Z,16.60
2019-06-01T05:16:52.087Z,16.80
2019-06-01T05:19:20.591Z,17.00
2019-06-01T05:21:48.984Z,17.20
2019-06-01T05:24:17.378Z,17.30
2019-06-01T05:26:45.909Z,17.60
2019-06-01T05:29:15.555Z,17.90
2019-06-01T05:31:44.238Z,18.00
2019-06-01T05:34:13.766Z,18.20
2019-06-01T05:36:42.978Z,18.40
2019-06-01T05:39:12.333Z,18.60
2019-06-01T05:41:40.767Z,18.80
2019-06-01T05:44:09.267Z,19.00
2019-06-01T05:46:37.697Z,19.20
2019-06-01T05:49:06.046Z,19.30
2019-06-01T05:51:34.441Z,19.20
2019-06-01T05:54:02.819Z,19.00
2019-06-01T05:56:31.305Z,18.90
2019-06-01T05:58:59.666Z,18.80
2019-06-01T06:01:28.062Z,18.80
2019-06-01T06:03:56.437Z,18.90
2019-06-01T06:06:24.902Z,19.00
2019-06-01T06:08:53.279Z,19.10
2019-06-01T06:11:21.672Z,19.10
2019-06-01T06:13:50.044Z,19.10
2019-06-01T06:16:20.709Z,19.50
2019-06-01T06:18:48.470Z,19.70
2019-06-01T06:21:18.240Z,19.80
2019-06-01T06:23:46.850Z,19.80
2019-06-01T06:26:16.826Z,20.00
2019-06-01T06:28:45.254Z,20.10
2019-06-01T06:31:14.930Z,20.30
2019-06-01T06:33:55.605Z,20.40
2019-06-01T06:36:13.561Z,20.60
2019-06-01T06:38:41.983Z,20.80
2019-06-01T06:41:10.382Z,21.10
2019-06-01T06:43:38.754Z,21.40
2019-06-01T06:46:07.144Z,21.70
2019-06-01T06:48:35.518Z,22.00
2019-06-01T06:51:03.902Z,22.00
2019-06-01T06:53:35.099Z,22.00
2019-06-01T06:56:02.351Z,22.10
2019-06-01T06:58:30.726Z,22.40
2019-06-01T07:00:59.310Z,22.60
2019-06-01T07:03:27.978Z,22.70
2019-06-01T07:05:56.483Z,22.70
2019-06-01T07:08:25.897Z,22.80
2019-06-01T07:10:56.696Z,23.00
2019-06-01T07:13:25.432Z,23.00
2019-06-01T07:15:53.914Z,23.10
2019-06-01T07:18:23.533Z,23.20
2019-06-01T07:20:52.192Z,23.40
2019-06-01T07:23:21.616Z,23.50
2019-06-01T07:25:50.126Z,23.50
2019-06-01T07:28:18.522Z,23.60
2019-06-01T07:30:50.584Z,23.70
2019-06-01T07:33:16.919Z,23.80
2019-06-01T07:35:45.292Z,23.90
2019-06-01T07:38:13.679Z,24.00
2019-06-01T07:40:42.038Z,24.10
2019-06-01T07:43:10.427Z,24.10
2019-06-01T07:45:38.856Z,24.20
2019-06-01T07:48:07.300Z,24.30
2019-06-01T07:50:35.691Z,24.30
2019-06-01T07:53:04.089Z,24.30
2019-06-01T07:55:32.446Z,24.50
2019-06-01T07:58:00.771Z,24.50
2019-06-01T08:00:29.132Z,24.40
2019-06-01T08:02:57.518Z,24.30
2019-06-01T08:05:26.530Z,24.40
2019-06-01T08:07:55.061Z,24.50
2019-06-01T08:10:24.875Z,24.70
2019-06-01T08:12:54.048Z,24.70
2019-06-01T08:15:23.535Z,24.80
2019-06-01T08:17:53.979Z,24.60
2019-06-01T08:20:22.359Z,24.60
2019-06-01T08:22:50.795Z,24.70
2019-06-01T08:25:19.339Z,24.90
2019-06-01T08:27:47.948Z,25.10
2019-06-01T08:30:16.398Z,25.20
2019-06-01T08:32:44.864Z,25.30
2019-06-01T08:35:13.358Z,25.00
2019-06-01T08:37:41.882Z,25.10
2019-06-01T08:40:10.259Z,25.20
2019-06-01T08:42:38.671Z,25.40
2019-06-01T08:45:07.213Z,25.50
2019-06-01T08:47:35.782Z,25.60
2019-06-01T08:50:04.995Z,25.70
2019-06-01T08:52:34.208Z,25.70
2019-06-01T08:55:02.717Z,25.90
2019-06-01T08:57:32.365Z,26.10
2019-06-01T09:00:01.763Z,26.00
2019-06-01T09:02:30.867Z,26.00
2019-06-01T09:04:59.275Z,26.10
2019-06-01T09:07:28.896Z,26.30
2019-06-01T09:09:57.468Z,25.90
2019-06-01T09:12:27.160Z,26.00
2019-06-01T09:14:55.691Z,26.20
2019-06-01T09:17:25.262Z,26.00
2019-06-01T09:19:53.638Z,26.10
2019-06-01T09:22:22.032Z,26.10
2019-06-01T09:24:53.230Z,26.10
2019-06-01T09:27:20.442Z,26.30
2019-06-01T09:29:48.807Z,26.40
2019-06-01T09:32:17.191Z,26.60
2019-06-01T09:34:45.559Z,26.70
2019-06-01T09:37:13.950Z,26.80
2019-06-01T09:39:42.322Z,26.70
2019-06-01T09:42:10.683Z,26.50
2019-06-01T09:44:39.153Z,26.60
2019-06-01T09:47:07.911Z,26.70
2019-06-01T09:49:36.303Z,26.90
2019-06-01T09:52:04.937Z,27.10
2019-06-01T09:54:34.602Z,27.10
2019-06-01T09:57:03.369Z,27.20
2019-06-01T09:59:32.015Z,27.40
2019-06-01T10:02:00.415Z,27.10
2019-06-01T10:04:30.137Z,26.80
2019-06-01T10:06:58.557Z,26.70
2019-06-01T10:09:27.015Z,26.70
2019-06-01T10:11:55.412Z,26.70
2019-06-01T10:14:23.912Z,27.00
2019-06-01T10:16:52.351Z,27.20
2019-06-01T10:19:20.824Z,27.40
2019-06-01T10:21:49.197Z,27.60
2019-06-01T10:24:17.745Z,27.60
2019-06-01T10:26:46.492Z,27.70
2019-06-01T10:29:14.952Z,27.80
2019-06-01T10:31:43.323Z,27.90
2019-06-01T10:34:11.731Z,27.50
2019-06-01T10:36:40.274Z,27.40
2019-06-01T10:39:08.684Z,27.60
2019-06-01T10:41:37.422Z,27.60
2019-06-01T10:44:06.005Z,27.50
2019-06-01T10:46:35.802Z,27.50
2019-06-01T10:49:04.527Z,27.60
2019-06-01T10:51:34.067Z,27.70
2019-06-01T10:54:02.790Z,27.80
2019-06-01T10:56:32.291Z,27.70
2019-06-01T10:59:00.889Z,27.90
2019-06-01T11:01:32.269Z,27.90
2019-06-01T11:03:59.267Z,27.70
2019-06-01T11:06:40.240Z,27.80
2019-06-01T11:09:08.204Z,27.60
2019-06-01T11:11:36.943Z,27.50
2019-06-01T11:14:05.419Z,27.50
2019-06-01T11:16:35.093Z,27.60
2019-06-01T11:19:03.539Z,27.70
2019-06-01T11:21:33.402Z,27.80
2019-06-01T11:24:02.106Z,28.10
2019-06-01T11:26:30.646Z,28.50
2019-06-01T11:28:59.159Z,28.90
2019-06-01T11:31:27.841Z,29.20
2019-06-01T11:33:56.181Z,29.00
2019-06-01T11:36:24.566Z,29.40
2019-06-01T11:38:53.003Z,29.90
2019-06-01T11:41:21.482Z,30.10
2019-06-01T11:43:49.851Z,29.70
2019-06-01T11:46:18.423Z,29.70
2019-06-01T11:48:46.783Z,29.30
2019-06-01T11:51:15.195Z,29.10
2019-06-01T11:53:43.607Z,28.90
2019-06-01T11:56:15.269Z,28.90
2019-06-01T11:58:43.614Z,28.60
2019-06-01T12:01:11.979Z,28.70
2019-06-01T12:03:41.702Z,28.90
2019-06-01T12:06:10.255Z,29.10
2019-06-01T12:08:39.870Z,29.20
2019-06-01T12:11:08.410Z,29.20
2019-06-01T12:13:37.964Z,29.20
2019-06-01T12:16:06.452Z,29.00
2019-06-01T12:18:34.817Z,28.80
2019-06-01T12:21:03.214Z,28.80
2019-06-01T12:23:34.312Z,28.90
2019-06-01T12:26:02.705Z,28.50
2019-06-01T12:28:31.191Z,28.00
2019-06-01T12:30:59.584Z,27.90
2019-06-01T12:33:27.947Z,28.00
2019-06-01T12:35:56.346Z,28.20
2019-06-01T12:38:24.742Z,28.30
2019-06-01T12:40:53.154Z,28.40
2019-06-01T12:43:21.507Z,28.50
2019-06-01T12:46:05.440Z,28.70
2019-06-01T12:48:19.921Z,28.80
2019-06-01T12:50:50.862Z,28.80
2019-06-01T12:53:18.810Z,28.80
2019-06-01T12:55:47.296Z,28.90
2019-06-01T12:58:15.663Z,28.70
2019-06-01T13:00:44.282Z,28.50
2019-06-01T13:03:12.961Z,28.50
2019-06-01T13:05:41.545Z,28.60
2019-06-01T13:08:10.358Z,28.80
2019-06-01T13:10:38.752Z,28.90
2019-06-01T13:13:07.119Z,28.90
2019-06-01T13:15:35.494Z,29.00
2019-06-01T13:18:03.882Z,29.00
2019-06-01T13:20:34.527Z,29.10
2019-06-01T13:23:02.930Z,29.20
2019-06-01T13:25:31.360Z,29.40
2019-06-01T13:27:59.892Z,29.50
2019-06-01T13:30:28.240Z,29.50
2019-06-01T13:32:56.637Z,29.60
2019-06-01T13:35:24.997Z,29.60
2019-06-01T13:38:10.646Z,29.60
2019-06-01T13:40:23.407Z,29.50
2019-06-01T13:42:51.813Z,29.50
2019-06-01T13:45:20.467Z,29.60
2019-06-01T13:47:49.844Z,29.50
2019-06-01T13:50:18.307Z,29.30
2019-06-01T13:52:47.856Z,29.30
2019-06-01T13:55:16.368Z,29.20
2019-06-01T13:57:44.774Z,29.10
2019-06-01T14:00:29.434Z,29.10
2019-06-01T14:02:50.813Z,29.20
2019-06-01T14:05:18.415Z,29.40
2019-06-01T14:07:47.451Z,29.50
2019-06-01T14:10:15.934Z,29.50
2019-06-01T14:12:45.266Z,29.60
2019-06-01T14:15:13.691Z,29.70
2019-06-01T14:17:42.074Z,29.70
2019-06-01T14:20:10.430Z,29.70
2019-06-01T14:22:39.114Z,29.60
2019-06-01T14:25:13.717Z,29.50
2019-06-01T14:27:38.294Z,29.30
2019-06-01T14:30:08.332Z,29.10
2019-06-01T14:32:36.728Z,29.00
2019-06-01T14:35:08.324Z,29.00
2019-06-01T14:37:36.714Z,28.80
2019-06-01T14:40:06.317Z,28.90
2019-06-01T14:42:34.761Z,29.10
2019-06-01T14:45:03.583Z,28.80
2019-06-01T14:47:31.978Z,28.90
2019-06-01T14:50:00.376Z,28.90
2019-06-01T14:52:28.743Z,28.70
2019-06-01T14:54:58.035Z,28.80
2019-06-01T14:57:26.654Z,28.90
2019-06-01T14:59:56.052Z,29.00
2019-06-01T15:02:24.535Z,29.10
2019-06-01T15:04:54.189Z,29.20
2019-06-01T15:07:22.800Z,29.30
2019-06-01T15:09:52.227Z,29.30
2019-06-01T15:12:20.749Z,29.40
2019-06-01T15:14:49.056Z,29.00
2019-06-01T15:17:17.431Z,29.00
2019-06-01T15:19:45.798Z,29.10
2019-06-01T15:22:14.153Z,28.70
2019-06-01T15:24:42.892Z,28.60
2019-06-01T15:27:11.287Z,28.60
2019-06-01T15:29:39.679Z,28.60
2019-06-01T15:32:08.054Z,28.70
2019-06-01T15:34:36.444Z,28.50
2019-06-01T15:37:05.040Z,28.50
2019-06-01T15:39:33.388Z,28.60
2019-06-01T15:42:01.764Z,28.70
2019-06-01T15:44:30.151Z,28.70
2019-06-01T15:46:59.734Z,28.80
2019-06-01T15:49:28.225Z,29.00
2019-06-01T15:51:57.729Z,29.10
2019-06-01T15:54:27.145Z,29.20
2019-06-01T15:56:56.319Z,29.30
2019-06-01T15:59:25.258Z,29.30
2019-06-01T16:01:54.903Z,29.20
2019-06-01T16:04:23.641Z,29.30
2019-06-01T16:06:53.063Z,29.40
2019-06-01T16:09:21.677Z,29.40
2019-06-01T16:11:50.040Z,29.40
2019-06-01T16:14:18.436Z,29.40
2019-06-01T16:16:46.799Z,29.40
2019-06-01T16:19:15.185Z,29.20
2019-06-01T16:21:43.553Z,29.20
2019-06-01T16:24:11.867Z,29.20
2019-06-01T16:26:40.235Z,29.10
2019-06-01T16:29:08.631Z,29.00
2019-06-01T16:31:37.000Z,29.00
2019-06-01T16:34:05.417Z,28.80
2019-06-01T16:36:33.759Z,28.90
2019-06-01T16:39:05.255Z,28.90
2019-06-01T16:41:32.162Z,28.90
2019-06-01T16:44:01.767Z,29.00
2019-06-01T16:46:30.228Z,29.00
2019-06-01T16:48:59.533Z,28.90
2019-06-01T16:51:47.638Z,28.90
2019-06-01T16:54:16.020Z,28.80
2019-06-01T16:56:44.880Z,28.90
2019-06-01T16:59:14.211Z,28.90
2019-06-01T17:01:42.582Z,28.90
2019-06-01T17:04:10.976Z,28.70
2019-06-01T17:06:39.343Z,28.80
2019-06-01T17:09:07.869Z,28.70
2019-06-01T17:11:36.267Z,28.70
2019-06-01T17:14:05.625Z,28.70
2019-06-01T17:16:34.109Z,28.70
2019-06-01T17:19:03.075Z,28.60
2019-06-01T17:21:31.707Z,28.60
2019-06-01T17:24:00.062Z,28.60
2019-06-01T17:26:28.511Z,28.50
2019-06-01T17:28:57.908Z,28.50
2019-06-01T17:31:26.350Z,28.50
2019-06-01T17:33:55.075Z,28.50
2019-06-01T17:36:23.559Z,28.40
2019-06-01T17:38:51.920Z,28.40
2019-06-01T17:41:20.852Z,28.40
2019-06-01T17:43:49.207Z,28.20
2019-06-01T17:46:17.596Z,28.00
2019-06-01T17:48:45.958Z,27.90
2019-06-01T17:51:14.346Z,27.90
2019-06-01T17:53:42.723Z,27.90
2019-06-01T17:56:12.154Z,27.80
2019-06-01T17:58:40.717Z,27.70
2019-06-01T18:01:09.953Z,27.60
2019-06-01T18:03:38.364Z,27.40
2019-06-01T18:06:07.776Z,27.40
2019-06-01T18:08:36.224Z,27.40
2019-06-01T18:11:04.615Z,27.30
2019-06-01T18:13:32.979Z,27.20
2019-06-01T18:16:02.991Z,27.20
2019-06-01T18:18:31.376Z,27.20
2019-06-01T18:20:59.758Z,27.10
2019-06-01T18:23:28.159Z,27.00
2019-06-01T18:25:56.549Z,27.00
2019-06-01T18:28:24.986Z,26.90
2019-06-01T18:30:53.507Z,26.90
2019-06-01T18:33:21.971Z,26.80
2019-06-01T18:35:50.358Z,26.70
2019-06-01T18:38:18.862Z,26.70
2019-06-01T18:40:49.192Z,26.70
2019-06-01T18:43:18.541Z,26.60
2019-06-01T18:45:47.141Z,26.50
2019-06-01T18:48:15.695Z,26.40
2019-06-01T18:50:44.083Z,26.30
2019-06-01T18:53:12.713Z,26.20
2019-06-01T18:55:42.199Z,26.20
2019-06-01T18:58:10.644Z,26.20
2019-06-01T19:00:40.094Z,26.00
2019-06-01T19:03:09.014Z,25.80
2019-06-01T19:05:37.518Z,25.70
2019-06-01T19:08:07.042Z,25.70
2019-06-01T19:10:35.664Z,25.70
2019-06-01T19:13:05.612Z,25.60
2019-06-01T19:15:34.493Z,25.50
2019-06-01T19:18:02.991Z,25.50
2019-06-01T19:20:33.306Z,25.40
2019-06-01T19:23:01.351Z,25.30
2019-06-01T19:25:31.686Z,25.30
2019-06-01T19:28:00.072Z,25.30
2019-06-01T19:30:36.050Z,25.20
2019-06-01T19:33:06.752Z,25.20
2019-06-01T19:35:35.211Z,25.20
2019-06-01T19:38:03.600Z,25.10
2019-06-01T19:40:34.088Z,25.00
2019-06-01T19:43:02.716Z,25.00
2019-06-01T19:45:31.079Z,24.80
2019-06-01T19:47:59.471Z,24.60
2019-06-01T19:50:27.851Z,24.50
2019-06-01T19:52:56.244Z,24.20
2019-06-01T19:55:24.645Z,24.00
2019-06-01T19:57:53.035Z,23.80
2019-06-01T20:00:22.460Z,23.70
2019-06-01T20:02:50.960Z,23.60
2019-06-01T20:05:19.341Z,23.70
2019-06-01T20:07:47.998Z,23.40
2019-06-01T20:10:16.391Z,23.10
2019-06-01T20:12:44.742Z,22.70
2019-06-01T20:15:13.356Z,22.70
2019-06-01T20:17:41.800Z,22.70
2019-06-01T20:20:10.717Z,22.60
2019-06-01T20:22:39.323Z,22.60
2019-06-01T20:25:08.359Z,22.40
2019-06-01T20:27:36.882Z,22.30
2019-06-01T20:30:07.942Z,22.40
2019-06-01T20:32:36.330Z,22.20
2019-06-01T20:35:05.882Z,22.30
2019-06-01T20:37:34.266Z,22.30
2019-06-01T20:40:02.569Z,22.20
2019-06-01T20:42:32.940Z,22.10
2019-06-01T20:45:00.971Z,22.20
2019-06-01T20:47:29.559Z,22.30
2019-06-01T20:49:57.990Z,22.20
2019-06-01T20:52:26.308Z,22.10
2019-06-01T20:54:54.659Z,22.00
2019-06-01T20:57:24.022Z,21.80
2019-06-01T20:59:52.454Z,21.50
2019-06-01T21:02:21.808Z,21.30
2019-06-01T21:04:50.203Z,21.40
2019-06-01T21:07:19.825Z,21.50
2019-06-01T21:09:48.297Z,21.50
2019-06-01T21:12:16.691Z,21.60
2019-06-01T21:14:45.062Z,21.60
2019-06-01T21:17:14.368Z,21.60
2019-06-01T21:19:42.761Z,21.60
2019-06-01T21:22:11.175Z,21.30
2019-06-01T21:24:39.570Z,21.30
2019-06-01T21:27:07.934Z,21.10
2019-06-01T21:29:36.327Z,21.00
2019-06-01T21:32:04.705Z,21.00
2019-06-01T21:34:34.377Z,21.00
2019-06-01T21:37:02.773Z,21.10
2019-06-01T21:39:31.128Z,20.90
2019-06-01T21:41:59.558Z,20.70
2019-06-01T21:44:27.885Z,20.50
2019-06-01T21:46:56.257Z,20.60
2019-06-01T21:49:25.865Z,20.70
2019-06-01T21:51:54.315Z,20.70
2019-06-01T21:54:22.714Z,20.50
2019-06-01T21:56:51.071Z,20.50
2019-06-01T21:59:20.511Z,20.50
2019-06-01T22:01:49.031Z,20.50
2019-06-01T22:04:18.654Z,20.50
2019-06-01T22:06:47.139Z,20.40
2019-06-01T22:09:15.564Z,20.40
2019-06-01T22:11:44.775Z,20.50
2019-06-01T22:14:13.147Z,20.70
2019-06-01T22:16:41.526Z,20.90
2019-06-01T22:19:09.996Z,20.90
2019-06-01T22:21:38.382Z,20.90
2019-06-01T22:24:06.756Z,20.80
2019-06-01T22:26:35.126Z,20.70
2019-06-01T22:29:03.520Z,20.60
2019-06-01T22:31:31.895Z,20.60
2019-06-01T22:34:00.291Z,20.70
2019-06-01T22:36:29.391Z,20.70
2019-06-01T22:38:57.911Z,20.60
2019-06-01T22:41:26.297Z,20.50
2019-06-01T22:43:54.704Z,20.30
2019-06-01T22:46:24.358Z,19.80
2019-06-01T22:48:52.977Z,19.60
2019-06-01T22:51:21.349Z,19.80
2019-06-01T22:53:49.734Z,19.80
2019-06-01T22:56:18.107Z,19.70
2019-06-01T22:58:46.492Z,19.40
2019-06-01T23:01:14.864Z,19.40
2019-06-01T23:03:43.347Z,19.60
2019-06-01T23:06:11.698Z,19.80
2019-06-01T23:08:40.090Z,19.90
2019-06-01T23:11:08.456Z,19.90
2019-06-01T23:13:52.226Z,20.00
2019-06-01T23:16:08.383Z,19.90
2019-06-01T23:18:37.005Z,19.80
2019-06-01T23:21:05.409Z,19.80
2019-06-01T23:23:33.815Z,19.70
2019-06-01T23:26:02.231Z,19.80
2019-06-01T23:28:30.619Z,19.80
2019-06-01T23:30:59.007Z,19.70
2019-06-01T23:33:27.375Z,19.40
2019-06-01T23:35:55.790Z,19.40
2019-06-01T23:38:24.549Z,19.40
2019-06-01T23:40:53.076Z,19.10
2019-06-01T23:43:22.609Z,18.90
2019-06-01T23:45:51.184Z,18.70
2019-06-01T23:48:19.631Z,18.70
2019-06-01T23:50:48.010Z,18.80
2019-06-01T23:53:16.519Z,18.80
2019-06-01T23:55:44.908Z,18.80
2019-06-01T23:58:13.286Z,18.60
